createdAt,value
2023-03-12T00:00:31.735Z,-1.83
2023-03-12T00:01:34.695Z,-1.83
2023-03-12T00:02:36.974Z,-1.85
2023-03-12T00:03:40.499Z,-1.84
2023-03-12T00:04:44.005Z,-1.85
2023-03-12T00:05:46.381Z,-1.85
2023-03-12T00:06:48.522Z,-1.85
2023-03-12T00:07:51.599Z,-1.84
2023-03-12T00:08:56.222Z,-1.86
2023-03-12T00:09:58.598Z,-1.86
2023-03-12T00:11:00.976Z,-1.85
2023-03-12T00:12:04.144Z,-1.85
2023-03-12T00:13:07.288Z,-1.86
2023-03-12T00:14:09.498Z,-1.88
2023-03-12T00:15:11.711Z,-1.86
2023-03-12T00:16:15.980Z,-1.86
2023-03-12T00:17:18.249Z,-1.86
2023-03-12T00:18:20.528Z,-1.86
2023-03-12T00:19:23.165Z,-1.86
2023-03-12T00:20:26.416Z,-1.87
2023-03-12T00:21:28.674Z,-1.86
2023-03-12T00:22:30.819Z,-1.89
2023-03-12T00:23:33.038Z,-1.87
2023-03-12T00:24:35.250Z,-1.88
2023-03-12T00:25:37.440Z,-1.88
2023-03-12T00:26:40.123Z,-1.89
2023-03-12T00:27:43.364Z,-1.89
2023-03-12T00:28:46.944Z,-1.88
2023-03-12T00:29:49.234Z,-1.88
2023-03-12T00:30:55.390Z,-1.88
2023-03-12T00:31:59.315Z,-1.88
2023-03-12T00:33:02.168Z,-1.89
2023-03-12T00:34:04.850Z,-1.88
2023-03-12T00:35:07.913Z,-1.89
2023-03-12T00:36:11.076Z,-1.89
2023-03-12T00:37:13.368Z,-1.88
2023-03-12T00:38:15.597Z,-1.89
2023-03-12T00:39:17.723Z,-1.89
2023-03-12T00:40:22.641Z,-1.89
2023-03-12T00:41:25.986Z,-1.88
2023-03-12T00:42:28.859Z,-1.86
2023-03-12T00:43:32.026Z,-1.88
2023-03-12T00:44:34.400Z,-1.88
2023-03-12T00:45:37.137Z,-1.89
2023-03-12T00:46:39.389Z,-1.89
2023-03-12T00:47:42.950Z,-1.89
2023-03-12T00:48:45.261Z,-1.89
2023-03-12T00:49:47.554Z,-1.88
2023-03-12T00:50:49.763Z,-1.88
2023-03-12T00:51:52.117Z,-1.90
2023-03-12T00:52:54.985Z,-1.88
2023-03-12T00:53:57.256Z,-1.89
2023-03-12T00:55:00.484Z,-1.90
2023-03-12T00:56:04.717Z,-1.90
2023-03-12T00:57:07.633Z,-1.91
2023-03-12T00:58:11.313Z,-1.90
2023-03-12T00:59:15.703Z,-1.89
2023-03-12T01:00:19.087Z,-1.90
2023-03-12T01:01:21.371Z,-1.91
2023-03-12T01:02:23.590Z,-1.91
2023-03-12T01:03:25.850Z,-1.90
2023-03-12T01:04:28.041Z,-1.90
2023-03-12T01:05:30.209Z,-1.91
2023-03-12T01:06:32.448Z,-1.90
2023-03-12T01:07:36.289Z,-1.89
2023-03-12T01:08:38.522Z,-1.90
2023-03-12T01:09:40.816Z,-1.90
2023-03-12T01:10:43.742Z,-1.89
2023-03-12T01:11:45.943Z,-1.91
2023-03-12T01:12:48.276Z,-1.90
2023-03-12T01:13:50.605Z,-1.91
2023-03-12T01:14:52.864Z,-1.91
2023-03-12T01:15:55.417Z,-1.92
2023-03-12T01:16:57.624Z,-1.92
2023-03-12T01:18:00.158Z,-1.92
2023-03-12T01:19:04.376Z,-1.92
2023-03-12T01:20:08.550Z,-1.91
2023-03-12T01:21:10.801Z,-1.92
2023-03-12T01:22:13.109Z,-1.93
2023-03-12T01:23:16.225Z,-1.93
2023-03-12T01:24:18.449Z,-1.94
2023-03-12T01:25:20.728Z,-1.94
2023-03-12T01:26:23.384Z,-1.93
2023-03-12T01:27:25.703Z,-1.95
2023-03-12T01:28:28.053Z,-1.95
2023-03-12T01:29:30.389Z,-1.95
2023-03-12T01:30:32.906Z,-1.96
2023-03-12T01:31:36.246Z,-1.97
2023-03-12T01:32:38.495Z,-1.97
2023-03-12T01:33:41.131Z,-1.96
2023-03-12T01:34:44.414Z,-1.97
2023-03-12T01:35:46.810Z,-1.97
2023-03-12T01:36:52.113Z,-1.96
2023-03-12T01:37:57.143Z,-1.96
2023-03-12T01:39:00.943Z,-1.97
2023-03-12T01:40:04.596Z,-1.97
2023-03-12T01:41:07.105Z,-1.97
2023-03-12T01:42:11.705Z,-1.98
2023-03-12T01:43:25.110Z,-1.99
2023-03-12T01:44:28.201Z,-1.99
2023-03-12T01:45:52.435Z,-1.99
2023-03-12T01:46:54.957Z,-2.01
2023-03-12T01:47:59.411Z,-2.00
2023-03-12T01:49:23.605Z,-2.00
2023-03-12T01:50:25.866Z,-2.02
2023-03-12T01:51:33.416Z,-2.02
2023-03-12T01:52:38.158Z,-2.02
2023-03-12T01:53:45.136Z,-2.02
2023-03-12T01:54:55.301Z,-2.03
2023-03-12T01:56:00.712Z,-2.04
2023-03-12T01:57:06.031Z,-2.06
2023-03-12T01:58:08.432Z,-2.06
2023-03-12T01:59:16.092Z,-2.07
2023-03-12T02:00:22.071Z,-2.07
2023-03-12T02:01:25.463Z,-2.07
2023-03-12T02:02:30.080Z,-2.07
2023-03-12T02:03:37.446Z,-2.08
2023-03-12T02:04:44.620Z,-2.08
2023-03-12T02:06:03.478Z,-2.08
2023-03-12T02:07:10.195Z,-2.09
2023-03-12T02:08:14.563Z,-2.08
2023-03-12T02:09:20.338Z,-2.10
2023-03-12T02:10:25.493Z,-2.11
2023-03-12T02:11:28.138Z,-2.12
2023-03-12T02:12:30.725Z,-2.12
2023-03-12T02:13:33.784Z,-2.12
2023-03-12T02:14:37.102Z,-2.12
2023-03-12T02:15:40.727Z,-2.14
2023-03-12T02:16:43.667Z,-2.14
2023-03-12T02:17:46.380Z,-2.14
2023-03-12T02:18:51.690Z,-2.14
2023-03-12T02:20:13.136Z,-2.15
2023-03-12T02:21:23.479Z,-2.14
2023-03-12T02:22:26.168Z,-2.15
2023-03-12T02:23:45.721Z,-2.14
2023-03-12T02:25:04.742Z,-2.15
2023-03-12T02:26:08.292Z,-2.15
2023-03-12T02:27:12.390Z,-2.16
2023-03-12T02:28:16.777Z,-2.17
2023-03-12T02:29:19.129Z,-2.17
2023-03-12T02:30:22.580Z,-2.18
2023-03-12T02:31:29.982Z,-2.18
2023-03-12T02:32:39.613Z,-2.19
2023-03-12T02:33:42.448Z,-2.18
2023-03-12T02:34:44.685Z,-2.20
2023-03-12T02:35:48.152Z,-2.21
2023-03-12T02:36:50.658Z,-2.20
2023-03-12T02:37:55.570Z,-2.20
2023-03-12T02:38:58.031Z,-2.21
2023-03-12T02:40:08.007Z,-2.21
2023-03-12T02:41:11.895Z,-2.22
2023-03-12T02:42:15.138Z,-2.24
2023-03-12T02:43:21.843Z,-2.22
2023-03-12T02:44:31.973Z,-2.22
2023-03-12T02:45:38.048Z,-2.22
2023-03-12T02:46:52.789Z,-2.24
2023-03-12T02:47:55.003Z,-2.23
2023-03-12T02:48:58.029Z,-2.23
2023-03-12T02:50:00.307Z,-2.23
2023-03-12T02:51:03.476Z,-2.25
2023-03-12T02:52:05.737Z,-2.26
2023-03-12T02:53:07.988Z,-2.25
2023-03-12T02:54:11.768Z,-2.26
2023-03-12T02:55:14.378Z,-2.26
2023-03-12T02:56:17.233Z,-2.26
2023-03-12T02:57:19.471Z,-2.26
2023-03-12T02:58:21.945Z,-2.26
2023-03-12T02:59:26.838Z,-2.27
2023-03-12T03:00:32.480Z,-2.26
2023-03-12T03:01:35.992Z,-2.25
2023-03-12T03:02:39.838Z,-2.26
2023-03-12T03:03:42.086Z,-2.26
2023-03-12T03:04:44.272Z,-2.25
2023-03-12T03:05:46.576Z,-2.27
2023-03-12T03:06:49.066Z,-2.26
2023-03-12T03:07:51.274Z,-2.25
2023-03-12T03:08:53.598Z,-2.26
2023-03-12T03:09:55.872Z,-2.26
2023-03-12T03:10:58.551Z,-2.25
2023-03-12T03:12:00.967Z,-2.25
2023-03-12T03:13:05.450Z,-2.26
2023-03-12T03:14:08.455Z,-2.25
2023-03-12T03:15:11.773Z,-2.25
2023-03-12T03:16:14.890Z,-2.25
2023-03-12T03:17:17.098Z,-2.25
2023-03-12T03:18:19.367Z,-2.25
2023-03-12T03:19:21.539Z,-2.25
2023-03-12T03:20:26.122Z,-2.24
2023-03-12T03:21:28.615Z,-2.23
2023-03-12T03:22:30.961Z,-2.24
2023-03-12T03:23:33.771Z,-2.23
2023-03-12T03:24:36.405Z,-2.24
2023-03-12T03:25:39.266Z,-2.24
2023-03-12T03:26:41.533Z,-2.22
2023-03-12T03:27:44.626Z,-2.24
2023-03-12T03:28:49.498Z,-2.23
2023-03-12T03:29:52.182Z,-2.22
2023-03-12T03:30:58.416Z,-2.22
2023-03-12T03:32:00.694Z,-2.21
2023-03-12T03:33:03.035Z,-2.21
2023-03-12T03:34:05.281Z,-2.19
2023-03-12T03:35:07.894Z,-2.21
2023-03-12T03:36:11.208Z,-2.19
2023-03-12T03:37:21.645Z,-2.20
2023-03-12T03:38:24.098Z,-2.19
2023-03-12T03:39:28.795Z,-2.18
2023-03-12T03:40:31.193Z,-2.18
2023-03-12T03:41:33.563Z,-2.18
2023-03-12T03:42:35.881Z,-2.17
2023-03-12T03:43:38.088Z,-2.16
2023-03-12T03:44:41.027Z,-2.14
2023-03-12T03:45:44.964Z,-2.14
2023-03-12T03:46:47.926Z,-2.15
2023-03-12T03:47:50.230Z,-2.15
2023-03-12T03:48:53.102Z,-2.15
2023-03-12T03:49:56.906Z,-2.13
2023-03-12T03:51:03.041Z,-2.13
2023-03-12T03:52:07.839Z,-2.13
2023-03-12T03:53:12.898Z,-2.12
2023-03-12T03:54:15.656Z,-2.11
2023-03-12T03:55:19.594Z,-2.11
2023-03-12T03:56:22.030Z,-2.10
2023-03-12T03:57:26.943Z,-2.10
2023-03-12T03:58:29.351Z,-2.10
2023-03-12T03:59:32.152Z,-2.09
2023-03-12T04:00:34.927Z,-2.08
2023-03-12T04:01:40.370Z,-2.06
2023-03-12T04:02:42.583Z,-2.06
2023-03-12T04:03:46.946Z,-2.06
2023-03-12T04:04:49.487Z,-2.05
2023-03-12T04:06:01.171Z,-2.05
2023-03-12T04:07:05.399Z,-2.04
2023-03-12T04:08:10.759Z,-2.04
2023-03-12T04:09:13.117Z,-2.03
2023-03-12T04:10:15.998Z,-2.02
2023-03-12T04:11:20.746Z,-2.02
2023-03-12T04:12:26.372Z,-2.02
2023-03-12T04:13:28.935Z,-2.02
2023-03-12T04:14:31.150Z,-2.01
2023-03-12T04:15:33.922Z,-2.01
2023-03-12T04:16:36.247Z,-2.01
2023-03-12T04:17:39.327Z,-2.01
2023-03-12T04:18:42.145Z,-1.99
2023-03-12T04:19:44.644Z,-2.00
2023-03-12T04:20:46.891Z,-1.99
2023-03-12T04:21:49.130Z,-2.00
2023-03-12T04:22:51.405Z,-2.01
2023-03-12T04:23:53.748Z,-1.99
2023-03-12T04:24:59.754Z,-2.00
2023-03-12T04:26:03.270Z,-2.01
2023-03-12T04:27:05.967Z,-2.00
2023-03-12T04:28:09.717Z,-2.02
2023-03-12T04:29:14.027Z,-2.00
2023-03-12T04:30:17.056Z,-1.99
2023-03-12T04:31:21.573Z,-2.00
2023-03-12T04:32:25.979Z,-2.00
2023-03-12T04:33:30.562Z,-2.00
2023-03-12T04:34:33.581Z,-2.00
2023-03-12T04:35:36.865Z,-2.01
2023-03-12T04:36:39.457Z,-2.00
2023-03-12T04:37:42.694Z,-1.99
2023-03-12T04:38:45.649Z,-1.99
2023-03-12T04:39:50.347Z,-2.01
2023-03-12T04:41:20.361Z,-2.02
2023-03-12T04:42:43.097Z,-2.03
2023-03-12T04:43:45.311Z,-2.02
2023-03-12T04:44:52.593Z,-2.03
2023-03-12T04:45:56.215Z,-2.05
2023-03-12T04:46:58.758Z,-2.03
2023-03-12T04:48:01.893Z,-2.05
2023-03-12T04:49:05.954Z,-2.05
2023-03-12T04:50:11.767Z,-2.06
2023-03-12T04:51:14.115Z,-2.07
2023-03-12T04:52:17.854Z,-2.07
2023-03-12T04:53:21.205Z,-2.07
2023-03-12T04:54:24.649Z,-2.08
2023-03-12T04:55:27.541Z,-2.09
2023-03-12T04:56:29.786Z,-2.08
2023-03-12T04:57:32.041Z,-2.09
2023-03-12T04:58:36.020Z,-2.08
2023-03-12T04:59:38.381Z,-2.10
2023-03-12T05:00:41.716Z,-2.09
2023-03-12T05:01:44.370Z,-2.09
2023-03-12T05:02:55.442Z,-2.10
2023-03-12T05:03:57.990Z,-2.10
2023-03-12T05:05:00.523Z,-2.12
2023-03-12T05:06:02.769Z,-2.12
2023-03-12T05:07:07.063Z,-2.11
2023-03-12T05:08:09.496Z,-2.12
2023-03-12T05:09:12.141Z,-2.11
2023-03-12T05:10:14.877Z,-2.12
2023-03-12T05:11:18.097Z,-2.12
2023-03-12T05:12:20.773Z,-2.13
2023-03-12T05:13:23.262Z,-2.13
2023-03-12T05:14:29.547Z,-2.13
2023-03-12T05:15:32.294Z,-2.12
2023-03-12T05:16:34.608Z,-2.12
2023-03-12T05:17:37.097Z,-2.12
2023-03-12T05:18:41.417Z,-2.12
2023-03-12T05:19:43.674Z,-2.12
2023-03-12T05:20:46.069Z,-2.11
2023-03-12T05:21:48.725Z,-2.09
2023-03-12T05:22:50.981Z,-2.08
2023-03-12T05:23:53.625Z,-2.09
2023-03-12T05:24:58.186Z,-2.09
2023-03-12T05:26:00.728Z,-2.08
2023-03-12T05:27:03.885Z,-2.09
2023-03-12T05:28:06.417Z,-2.09
2023-03-12T05:29:12.065Z,-2.08
2023-03-12T05:30:15.618Z,-2.08
2023-03-12T05:31:18.669Z,-2.08
2023-03-12T05:32:21.102Z,-2.06
2023-03-12T05:33:26.290Z,-2.06
2023-03-12T05:34:30.557Z,-2.06
2023-03-12T05:35:33.288Z,-2.06
2023-03-12T05:36:35.661Z,-2.04
2023-03-12T05:37:37.959Z,-2.02
2023-03-12T05:38:40.980Z,-2.02
2023-03-12T05:39:46.969Z,-2.03
2023-03-12T05:40:55.953Z,-2.02
2023-03-12T05:41:59.767Z,-2.00
2023-03-12T05:43:03.032Z,-2.00
2023-03-12T05:44:05.403Z,-1.98
2023-03-12T05:45:08.162Z,-1.99
2023-03-12T05:46:11.550Z,-1.97
2023-03-12T05:47:14.034Z,-1.98
2023-03-12T05:48:19.545Z,-1.96
2023-03-12T05:49:23.161Z,-1.96
2023-03-12T05:50:26.441Z,-1.94
2023-03-12T05:51:28.754Z,-1.94
2023-03-12T05:52:30.986Z,-1.92
2023-03-12T05:53:33.793Z,-1.92
2023-03-12T05:54:36.447Z,-1.90
2023-03-12T05:55:40.694Z,-1.90
2023-03-12T05:56:43.905Z,-1.89
2023-03-12T05:57:46.202Z,-1.89
2023-03-12T05:58:50.195Z,-1.89
2023-03-12T05:59:54.156Z,-1.86
2023-03-12T06:00:56.369Z,-1.87
2023-03-12T06:01:58.659Z,-1.86
2023-03-12T06:03:01.298Z,-1.84
2023-03-12T06:04:04.026Z,-1.84
2023-03-12T06:05:06.964Z,-1.83
2023-03-12T06:06:09.707Z,-1.82
2023-03-12T06:07:12.037Z,-1.81
2023-03-12T06:08:15.256Z,-1.81
2023-03-12T06:09:19.093Z,-1.79
2023-03-12T06:10:21.325Z,-1.80
2023-03-12T06:11:23.538Z,-1.79
2023-03-12T06:12:25.793Z,-1.76
2023-03-12T06:13:28.542Z,-1.74
2023-03-12T06:14:32.002Z,-1.73
2023-03-12T06:15:36.656Z,-1.71
2023-03-12T06:16:40.765Z,-1.67
2023-03-12T06:17:43.152Z,-1.64
2023-03-12T06:18:47.346Z,-1.61
2023-03-12T06:19:52.951Z,-1.59
2023-03-12T06:20:56.124Z,-1.54
2023-03-12T06:21:59.879Z,-1.47
2023-03-12T06:23:03.204Z,-1.43
2023-03-12T06:24:07.968Z,-1.36
2023-03-12T06:25:19.909Z,-1.28
2023-03-12T06:26:25.006Z,-1.20
2023-03-12T06:27:27.219Z,-1.13
2023-03-12T06:28:29.510Z,-1.07
2023-03-12T06:29:31.721Z,-0.98
2023-03-12T06:30:33.995Z,-0.88
2023-03-12T06:31:38.734Z,-0.80
2023-03-12T06:32:41.423Z,-0.69
2023-03-12T06:33:43.859Z,-0.61
2023-03-12T06:34:46.115Z,-0.49
2023-03-12T06:35:49.144Z,-0.41
2023-03-12T06:36:51.470Z,-0.30
2023-03-12T06:37:53.745Z,-0.18
2023-03-12T06:38:57.288Z,-0.08
2023-03-12T06:40:01.769Z,0.03
2023-03-12T06:41:07.011Z,0.16
2023-03-12T06:42:09.516Z,0.25
2023-03-12T06:43:12.411Z,0.37
2023-03-12T06:44:14.676Z,0.49
2023-03-12T06:45:18.206Z,0.60
2023-03-12T06:46:22.055Z,0.72
2023-03-12T06:47:24.571Z,0.84
2023-03-12T06:48:28.418Z,0.96
2023-03-12T06:49:33.411Z,1.08
2023-03-12T06:50:35.970Z,1.20
2023-03-12T06:51:38.546Z,1.33
2023-03-12T06:52:41.067Z,1.45
2023-03-12T06:53:44.938Z,1.56
2023-03-12T06:54:47.111Z,1.68
2023-03-12T06:55:51.127Z,1.81
2023-03-12T06:56:53.634Z,1.93
2023-03-12T06:57:55.874Z,2.07
2023-03-12T06:58:58.059Z,2.18
2023-03-12T07:00:00.298Z,2.29
2023-03-12T07:01:02.986Z,2.42
2023-03-12T07:02:05.412Z,2.54
2023-03-12T07:03:07.843Z,2.66
2023-03-12T07:04:10.069Z,2.78
2023-03-12T07:05:12.280Z,2.88
2023-03-12T07:06:16.923Z,2.99
2023-03-12T07:07:20.166Z,3.11
2023-03-12T07:08:23.253Z,3.23
2023-03-12T07:09:25.528Z,3.35
2023-03-12T07:10:31.689Z,3.45
2023-03-12T07:11:35.415Z,3.57
2023-03-12T07:12:38.706Z,3.70
2023-03-12T07:13:41.649Z,3.83
2023-03-12T07:14:43.854Z,3.96
2023-03-12T07:15:46.649Z,4.08
2023-03-12T07:16:49.122Z,4.21
2023-03-12T07:17:51.296Z,4.32
2023-03-12T07:18:53.589Z,4.43
2023-03-12T07:19:55.873Z,4.55
2023-03-12T07:20:58.185Z,4.68
2023-03-12T07:22:00.429Z,4.78
2023-03-12T07:23:02.648Z,4.89
2023-03-12T07:24:07.299Z,5.01
2023-03-12T07:25:10.149Z,5.12
2023-03-12T07:26:12.317Z,5.23
2023-03-12T07:27:14.490Z,5.33
2023-03-12T07:28:17.436Z,5.42
2023-03-12T07:29:19.664Z,5.51
2023-03-12T07:30:22.156Z,5.61
2023-03-12T07:31:24.349Z,5.70
2023-03-12T07:32:26.885Z,5.78
2023-03-12T07:33:29.227Z,5.88
2023-03-12T07:34:31.628Z,5.97
2023-03-12T07:35:34.791Z,6.06
2023-03-12T07:36:37.185Z,6.15
2023-03-12T07:37:39.376Z,6.23
2023-03-12T07:38:41.527Z,6.32
2023-03-12T07:39:44.745Z,6.41
2023-03-12T07:40:55.016Z,6.51
2023-03-12T07:41:58.272Z,6.59
2023-03-12T07:43:01.229Z,6.69
2023-03-12T07:44:05.384Z,6.79
2023-03-12T07:45:08.303Z,6.87
2023-03-12T07:46:10.561Z,6.97
2023-03-12T07:47:23.254Z,7.05
2023-03-12T07:48:26.663Z,7.13
2023-03-12T07:49:28.946Z,7.19
2023-03-12T07:50:31.202Z,7.26
2023-03-12T07:51:33.408Z,7.32
2023-03-12T07:52:35.673Z,7.38
2023-03-12T07:53:37.942Z,7.44
2023-03-12T07:54:40.327Z,7.48
2023-03-12T07:55:46.125Z,7.55
2023-03-12T07:56:48.674Z,7.60
2023-03-12T07:57:52.174Z,7.65
2023-03-12T07:58:55.333Z,7.70
2023-03-12T07:59:57.689Z,7.73
2023-03-12T08:00:59.960Z,7.78
2023-03-12T08:02:02.334Z,7.80
2023-03-12T08:03:05.289Z,7.85
2023-03-12T08:04:07.683Z,7.88
2023-03-12T08:05:10.733Z,7.90
2023-03-12T08:06:13.112Z,7.92
2023-03-12T08:07:16.427Z,7.97
2023-03-12T08:08:18.620Z,7.98
2023-03-12T08:09:20.862Z,8.00
2023-03-12T08:10:23.812Z,8.01
2023-03-12T08:11:26.091Z,8.00
2023-03-12T08:12:28.857Z,8.01
2023-03-12T08:13:31.778Z,8.00
2023-03-12T08:14:34.520Z,7.99
2023-03-12T08:15:37.036Z,7.98
2023-03-12T08:16:39.552Z,7.96
2023-03-12T08:17:41.826Z,7.97
2023-03-12T08:18:44.014Z,7.93
2023-03-12T08:19:46.312Z,7.93
2023-03-12T08:20:53.724Z,7.90
2023-03-12T08:21:56.015Z,7.89
2023-03-12T08:22:58.227Z,7.89
2023-03-12T08:24:00.488Z,7.89
2023-03-12T08:25:03.783Z,7.89
2023-03-12T08:26:05.913Z,7.91
2023-03-12T08:27:08.103Z,7.91
2023-03-12T08:28:10.360Z,7.93
2023-03-12T08:29:12.721Z,7.96
2023-03-12T08:30:15.056Z,7.99
2023-03-12T08:31:17.375Z,8.04
2023-03-12T08:32:19.778Z,8.07
2023-03-12T08:33:22.832Z,8.10
2023-03-12T08:34:25.166Z,8.14
2023-03-12T08:35:27.411Z,8.18
2023-03-12T08:36:29.646Z,8.22
2023-03-12T08:37:32.238Z,8.28
2023-03-12T08:38:34.873Z,8.35
2023-03-12T08:39:37.058Z,8.41
2023-03-12T08:40:39.568Z,8.48
2023-03-12T08:41:41.764Z,8.54
2023-03-12T08:42:45.899Z,8.59
2023-03-12T08:43:49.311Z,8.67
2023-03-12T08:44:51.485Z,8.73
2023-03-12T08:45:58.994Z,8.79
2023-03-12T08:47:01.491Z,8.82
2023-03-12T08:48:09.076Z,8.87
2023-03-12T08:49:11.207Z,8.88
2023-03-12T08:50:16.664Z,8.90
2023-03-12T08:51:19.274Z,8.93
2023-03-12T08:52:21.482Z,8.94
2023-03-12T08:53:25.336Z,8.97
2023-03-12T08:54:27.596Z,8.95
2023-03-12T08:55:29.777Z,8.95
2023-03-12T08:56:32.793Z,8.95
2023-03-12T08:57:35.073Z,8.93
2023-03-12T08:58:37.344Z,8.90
2023-03-12T08:59:39.529Z,8.87
2023-03-12T09:00:41.698Z,8.87
2023-03-12T09:01:44.097Z,8.82
2023-03-12T09:02:48.296Z,8.79
2023-03-12T09:03:52.794Z,8.76
2023-03-12T09:04:55.089Z,8.73
2023-03-12T09:06:04.667Z,8.69
2023-03-12T09:07:06.822Z,8.66
2023-03-12T09:08:10.221Z,8.63
2023-03-12T09:09:12.889Z,8.61
2023-03-12T09:10:15.047Z,8.58
2023-03-12T09:11:17.498Z,8.54
2023-03-12T09:12:19.782Z,8.51
2023-03-12T09:13:21.942Z,8.49
2023-03-12T09:15:46.499Z,8.42
2023-03-12T09:16:49.637Z,8.41
2023-03-12T09:17:51.919Z,8.38
2023-03-12T09:18:55.655Z,8.39
2023-03-12T09:19:57.877Z,8.39
2023-03-12T09:21:00.178Z,8.38
2023-03-12T09:22:02.432Z,8.39
2023-03-12T09:23:06.660Z,8.40
2023-03-12T09:24:11.563Z,8.39
2023-03-12T09:25:14.511Z,8.40
2023-03-12T09:26:16.887Z,8.41
2023-03-12T09:27:19.201Z,8.42
2023-03-12T09:28:22.018Z,8.42
2023-03-12T09:29:25.429Z,8.44
2023-03-12T09:30:30.383Z,8.45
2023-03-12T09:31:33.083Z,8.44
2023-03-12T09:32:35.721Z,8.44
2023-03-12T09:33:38.628Z,8.44
2023-03-12T09:34:40.906Z,8.46
2023-03-12T09:35:45.596Z,8.47
2023-03-12T09:36:47.861Z,8.49
2023-03-12T09:37:51.508Z,8.52
2023-03-12T09:38:55.126Z,8.56
2023-03-12T09:39:57.513Z,8.58
2023-03-12T09:40:59.824Z,8.61
2023-03-12T09:42:06.974Z,8.66
2023-03-12T09:43:45.574Z,8.70
2023-03-12T09:44:50.083Z,8.76
2023-03-12T09:45:54.089Z,8.80
2023-03-12T09:47:01.272Z,8.85
2023-03-12T09:48:06.964Z,8.90
2023-03-12T09:49:21.460Z,8.97
2023-03-12T09:50:34.233Z,9.00
2023-03-12T09:51:42.032Z,9.06
2023-03-12T09:52:52.698Z,9.11
2023-03-12T09:53:59.559Z,9.15
2023-03-12T09:55:32.924Z,9.18
2023-03-12T09:56:35.145Z,9.19
2023-03-12T09:57:40.021Z,9.23
2023-03-12T09:58:48.300Z,9.27
2023-03-12T09:59:52.572Z,9.30
2023-03-12T10:01:07.550Z,9.30
2023-03-12T10:02:44.867Z,9.34
2023-03-12T10:04:28.810Z,9.40
2023-03-12T10:05:46.075Z,9.43
2023-03-12T10:07:16.890Z,9.47
2023-03-12T10:08:32.296Z,9.52
2023-03-12T10:10:13.783Z,9.54
2023-03-12T10:11:33.086Z,9.54
2023-03-12T10:12:47.671Z,9.56
2023-03-12T10:13:54.956Z,9.58
2023-03-12T10:15:22.721Z,9.60
2023-03-12T10:16:49.308Z,9.61
2023-03-12T10:18:13.556Z,9.61
2023-03-12T10:19:37.705Z,9.60
2023-03-12T10:20:57.697Z,9.57
2023-03-12T10:22:20.185Z,9.57
2023-03-12T10:23:34.433Z,9.56
2023-03-12T10:24:54.549Z,9.54
2023-03-12T10:26:07.040Z,9.52
2023-03-12T10:27:14.420Z,9.50
2023-03-12T10:28:28.964Z,9.49
2023-03-12T10:29:37.441Z,9.47
2023-03-12T10:30:42.804Z,9.45
2023-03-12T10:31:51.220Z,9.44
2023-03-12T10:33:01.304Z,9.45
2023-03-12T10:34:15.780Z,9.43
2023-03-12T10:35:22.084Z,9.43
2023-03-12T10:36:46.948Z,9.43
2023-03-12T10:37:57.077Z,9.42
2023-03-12T10:38:59.699Z,9.43
2023-03-12T10:40:02.573Z,9.44
2023-03-12T10:41:14.841Z,9.44
2023-03-12T10:42:19.683Z,9.45
2023-03-12T10:43:22.996Z,9.46
2023-03-12T10:44:25.778Z,9.47
2023-03-12T10:45:46.225Z,9.48
2023-03-12T10:47:04.177Z,9.48
2023-03-12T10:48:09.002Z,9.49
2023-03-12T10:49:24.638Z,9.50
2023-03-12T10:50:31.016Z,9.51
2023-03-12T10:51:35.707Z,9.52
2023-03-12T10:52:38.349Z,9.53
2023-03-12T10:53:44.842Z,9.51
2023-03-12T10:54:51.519Z,9.52
2023-03-12T10:56:16.732Z,9.52
2023-03-12T10:57:21.058Z,9.52
2023-03-12T10:58:25.235Z,9.52
2023-03-12T10:59:31.102Z,9.51
2023-03-12T11:00:34.160Z,9.51
2023-03-12T11:01:38.195Z,9.51
2023-03-12T11:02:46.101Z,9.51
2023-03-12T11:03:48.502Z,9.50
2023-03-12T11:04:52.153Z,9.49
2023-03-12T11:05:56.812Z,9.48
2023-03-12T11:07:19.516Z,9.46
2023-03-12T11:08:33.464Z,9.44
2023-03-12T11:09:38.277Z,9.41
2023-03-12T11:10:45.810Z,9.40
2023-03-12T11:11:50.297Z,9.38
2023-03-12T11:13:02.196Z,9.35
2023-03-12T11:14:13.173Z,9.34
2023-03-12T11:15:24.027Z,9.32
2023-03-12T11:16:31.493Z,9.27
2023-03-12T11:17:34.437Z,9.25
2023-03-12T11:18:38.490Z,9.24
2023-03-12T11:19:44.579Z,9.21
2023-03-12T11:20:48.367Z,9.20
2023-03-12T11:22:02.459Z,9.18
2023-03-12T11:23:27.631Z,9.13
2023-03-12T11:24:30.942Z,9.13
2023-03-12T11:25:33.172Z,9.11
2023-03-12T11:26:37.677Z,9.10
2023-03-12T11:27:46.304Z,9.07
2023-03-12T11:28:51.833Z,9.07
2023-03-12T11:29:54.608Z,9.05
2023-03-12T11:30:58.513Z,9.03
2023-03-12T11:32:10.900Z,9.03
2023-03-12T11:33:13.541Z,9.02
2023-03-12T11:34:23.047Z,9.02
2023-03-12T11:35:45.778Z,8.99
2023-03-12T11:37:10.850Z,8.99
2023-03-12T11:38:26.391Z,8.98
2023-03-12T11:39:49.348Z,8.96
2023-03-12T11:41:36.633Z,8.92
2023-03-12T11:42:57.440Z,8.91
2023-03-12T11:44:21.498Z,8.92
2023-03-12T11:45:35.882Z,8.89
2023-03-12T11:47:12.893Z,8.88
2023-03-12T11:48:26.085Z,8.86
2023-03-12T11:50:03.458Z,8.79
2023-03-12T11:51:43.196Z,8.74
2023-03-12T11:53:05.199Z,8.70
2023-03-12T11:54:22.929Z,8.66
2023-03-12T11:55:40.521Z,8.63
2023-03-12T11:56:46.170Z,8.60
2023-03-12T11:58:00.402Z,8.54
2023-03-12T11:59:12.990Z,8.49
2023-03-12T12:00:18.198Z,8.48
2023-03-12T12:01:32.891Z,8.39
2023-03-12T12:02:50.297Z,8.38
2023-03-12T12:04:12.664Z,8.37
2023-03-12T12:05:57.638Z,8.36
2023-03-12T12:07:17.111Z,8.34
2023-03-12T12:08:41.318Z,8.33
2023-03-12T12:10:26.135Z,8.31
2023-03-12T12:11:52.048Z,8.31
2023-03-12T12:13:08.668Z,8.33
2023-03-12T12:14:48.272Z,8.31
2023-03-12T12:16:03.361Z,8.31
2023-03-12T12:17:17.728Z,8.31
2023-03-12T12:18:46.550Z,8.32
2023-03-12T12:20:29.959Z,8.33
2023-03-12T12:21:56.884Z,8.36
2023-03-12T12:23:37.270Z,8.39
2023-03-12T12:24:51.812Z,8.45
2023-03-12T12:26:19.758Z,8.47
2023-03-12T12:27:26.306Z,8.49
2023-03-12T12:28:34.659Z,8.52
2023-03-12T12:29:36.979Z,8.54
2023-03-12T12:31:17.139Z,8.57
2023-03-12T12:32:45.073Z,8.58
2023-03-12T12:34:12.328Z,8.60
2023-03-12T12:35:26.585Z,8.60
2023-03-12T12:37:35.429Z,8.61
2023-03-12T12:38:54.842Z,8.61
2023-03-12T12:40:25.987Z,8.57
2023-03-12T12:41:38.920Z,8.58
2023-03-12T12:42:54.604Z,8.58
2023-03-12T12:44:05.460Z,8.55
2023-03-12T12:45:14.170Z,8.55
2023-03-12T12:46:16.712Z,8.57
2023-03-12T12:47:28.792Z,8.55
2023-03-12T12:48:38.459Z,8.56
2023-03-12T12:49:51.054Z,8.57
2023-03-12T12:50:54.649Z,8.53
2023-03-12T12:52:07.785Z,8.53
2023-03-12T12:53:25.531Z,8.52
2023-03-12T12:54:35.495Z,8.52
2023-03-12T12:55:57.141Z,8.51
2023-03-12T12:57:15.785Z,8.49
2023-03-12T12:58:27.853Z,8.49
2023-03-12T13:00:14.747Z,8.48
2023-03-12T13:01:18.389Z,8.49
2023-03-12T13:02:26.486Z,8.48
2023-03-12T13:03:31.310Z,8.47
2023-03-12T13:04:41.634Z,8.47
2023-03-12T13:05:53.008Z,8.46
2023-03-12T13:07:25.857Z,8.47
2023-03-12T13:08:44.567Z,8.47
2023-03-12T13:09:50.612Z,8.47
2023-03-12T13:10:58.103Z,8.49
2023-03-12T13:12:13.972Z,8.49
2023-03-12T13:13:22.243Z,8.48
2023-03-12T13:14:38.422Z,8.48
2023-03-12T13:15:43.852Z,8.47
2023-03-12T13:16:48.017Z,8.46
2023-03-12T13:17:59.313Z,8.47
2023-03-12T13:19:21.265Z,8.44
2023-03-12T13:20:33.687Z,8.44
2023-03-12T13:21:40.291Z,8.42
2023-03-12T13:23:14.346Z,8.43
2023-03-12T13:24:29.277Z,8.42
2023-03-12T13:25:53.745Z,8.41
2023-03-12T13:27:20.007Z,8.39
2023-03-12T13:28:32.927Z,8.39
2023-03-12T13:29:39.095Z,8.37
2023-03-12T13:30:44.158Z,8.34
2023-03-12T13:31:46.530Z,8.34
2023-03-12T13:32:49.092Z,8.33
2023-03-12T13:33:53.624Z,8.33
2023-03-12T13:34:59.496Z,8.30
2023-03-12T13:36:23.803Z,8.26
2023-03-12T13:37:45.734Z,8.25
2023-03-12T13:39:00.052Z,8.22
2023-03-12T13:40:05.586Z,8.20
2023-03-12T13:41:08.337Z,8.20
2023-03-12T13:42:35.741Z,8.18
2023-03-12T13:43:48.470Z,8.14
2023-03-12T13:44:52.634Z,8.12
2023-03-12T13:46:34.138Z,8.10
2023-03-12T13:47:42.703Z,8.07
2023-03-12T13:48:49.095Z,8.07
2023-03-12T13:49:58.482Z,8.05
2023-03-12T13:51:25.053Z,8.03
2023-03-12T13:52:41.549Z,8.03
2023-03-12T13:53:54.490Z,8.02
2023-03-12T13:55:29.703Z,8.01
2023-03-12T13:56:33.765Z,7.99
2023-03-12T13:57:41.250Z,7.98
2023-03-12T13:59:05.968Z,7.96
2023-03-12T14:00:26.437Z,7.94
2023-03-12T14:01:35.747Z,7.93
2023-03-12T14:02:46.442Z,7.91
2023-03-12T14:03:52.696Z,7.89
2023-03-12T14:05:05.272Z,7.88
2023-03-12T14:06:12.820Z,7.87
2023-03-12T14:07:38.950Z,7.84
2023-03-12T14:09:24.612Z,7.81
2023-03-12T14:10:38.985Z,7.79
2023-03-12T14:11:51.307Z,7.77
2023-03-12T14:13:41.767Z,7.73
2023-03-12T14:14:49.839Z,7.68
2023-03-12T14:16:21.131Z,7.64
2023-03-12T14:17:27.486Z,7.62
2023-03-12T14:18:35.008Z,7.61
2023-03-12T14:19:46.115Z,7.56
2023-03-12T14:20:56.711Z,7.53
2023-03-12T14:22:04.423Z,7.53
2023-03-12T14:23:13.371Z,7.49
2023-03-12T14:24:30.016Z,7.49
2023-03-12T14:25:36.835Z,7.46
2023-03-12T14:26:41.194Z,7.44
2023-03-12T14:27:47.329Z,7.43
2023-03-12T14:28:57.748Z,7.41
2023-03-12T14:30:17.898Z,7.38
2023-03-12T14:31:24.758Z,7.36
2023-03-12T14:32:30.879Z,7.33
2023-03-12T14:33:53.635Z,7.33
2023-03-12T14:35:21.883Z,7.29
2023-03-12T14:36:29.302Z,7.29
2023-03-12T14:38:03.341Z,7.23
2023-03-12T14:39:34.043Z,7.17
2023-03-12T14:40:47.255Z,7.17